createdAt,value
2023-05-01T00:02:15.464Z,5.17
2023-05-01T00:05:02.143Z,5.05
2023-05-01T00:07:50.787Z,5.03
2023-05-01T00:10:37.924Z,5.00
2023-05-01T00:13:24.706Z,5.01
2023-05-01T00:16:13.322Z,5.04
2023-05-01T00:18:59.732Z,5.08
2023-05-01T00:21:47.068Z,5.11
2023-05-01T00:24:35.289Z,5.01
2023-05-01T00:27:21.847Z,4.91
2023-05-01T00:30:09.706Z,4.91
2023-05-01T00:32:56.601Z,4.78
2023-05-01T00:35:45.208Z,4.77
2023-05-01T00:38:31.724Z,4.75
2023-05-01T00:41:19.967Z,4.83
2023-05-01T00:44:06.711Z,4.82
2023-05-01T00:46:54.729Z,4.84
2023-05-01T00:49:43.415Z,4.96
2023-05-01T00:52:30.008Z,4.68
2023-05-01T00:55:17.486Z,4.60
2023-05-01T00:58:06.262Z,4.56
2023-05-01T01:00:53.373Z,4.66
2023-05-01T01:03:40.497Z,4.54
2023-05-01T01:06:34.581Z,4.33
2023-05-01T01:09:38.820Z,4.27
2023-05-01T01:12:33.072Z,4.39
2023-05-01T01:15:29.415Z,4.33
2023-05-01T01:18:20.533Z,4.20
2023-05-01T01:21:12.817Z,4.12
2023-05-01T01:24:27.876Z,4.20
2023-05-01T01:27:39.955Z,4.24
2023-05-01T01:31:00.110Z,4.11
2023-05-01T01:34:02.529Z,4.10
2023-05-01T01:36:56.837Z,3.92
2023-05-01T01:39:50.655Z,4.09
2023-05-01T01:42:41.927Z,4.33
2023-05-01T01:45:41.063Z,4.10
2023-05-01T01:48:34.214Z,4.16
2023-05-01T01:51:23.627Z,4.28
2023-05-01T01:54:12.593Z,4.26
2023-05-01T01:57:02.712Z,4.13
2023-05-01T01:59:51.348Z,4.19
2023-05-01T02:02:39.692Z,4.02
2023-05-01T02:05:28.356Z,4.10
2023-05-01T02:08:17.772Z,4.03
2023-05-01T02:11:06.299Z,3.74
2023-05-01T02:13:55.866Z,4.04
2023-05-01T02:16:43.654Z,4.01
2023-05-01T02:19:33.262Z,4.00
2023-05-01T02:22:22.587Z,3.84
2023-05-01T02:25:12.642Z,3.87
2023-05-01T02:28:05.636Z,3.84
2023-05-01T02:30:59.650Z,3.90
2023-05-01T02:33:49.524Z,3.88
2023-05-01T02:39:42.213Z,3.96
2023-05-01T02:42:32.354Z,4.05
2023-05-01T02:45:21.623Z,4.05
2023-05-01T02:48:11.147Z,4.01
2023-05-01T02:50:59.396Z,4.04
2023-05-01T02:53:47.410Z,3.92
2023-05-01T02:56:40.165Z,3.96
2023-05-01T02:59:28.238Z,3.78
2023-05-01T03:02:15.918Z,3.85
2023-05-01T03:05:02.304Z,3.99
2023-05-01T03:07:49.260Z,3.82
2023-05-01T03:10:36.396Z,3.72
2023-05-01T03:13:23.255Z,3.71
2023-05-01T03:16:11.330Z,3.52
2023-05-01T03:18:58.055Z,3.60
2023-05-01T03:21:44.926Z,3.67
2023-05-01T03:24:31.536Z,3.52
2023-05-01T03:27:18.321Z,3.52
2023-05-01T03:30:05.865Z,3.65
2023-05-01T03:32:58.848Z,3.69
2023-05-01T03:35:50.212Z,3.58
2023-05-01T03:38:36.994Z,3.56
2023-05-01T03:41:29.710Z,3.74
2023-05-01T03:44:31.261Z,3.69
2023-05-01T03:47:17.838Z,3.79
2023-05-01T03:50:06.962Z,3.90
2023-05-01T03:52:53.948Z,3.92
2023-05-01T03:55:40.794Z,4.01
2023-05-01T03:58:27.636Z,4.10
2023-05-01T04:01:14.508Z,4.08
2023-05-01T04:04:04.155Z,4.13
2023-05-01T04:06:52.250Z,4.23
2023-05-01T04:09:39.004Z,4.20
2023-05-01T04:12:25.972Z,4.28
2023-05-01T04:15:15.316Z,4.49
2023-05-01T04:18:02.832Z,4.56
2023-05-01T04:20:49.469Z,4.59
2023-05-01T04:23:37.514Z,4.80
2023-05-01T04:26:24.323Z,4.95
2023-05-01T04:29:11.217Z,5.15
2023-05-01T04:31:58.241Z,5.47
2023-05-01T04:34:45.090Z,5.83
2023-05-01T04:37:31.644Z,6.09
2023-05-01T04:40:19.710Z,6.27
2023-05-01T04:43:06.253Z,6.49
2023-05-01T04:45:53.066Z,6.55
2023-05-01T04:48:39.707Z,6.81
2023-05-01T04:51:26.467Z,6.90
2023-05-01T04:54:13.368Z,6.83
2023-05-01T04:57:01.468Z,7.05
2023-05-01T04:59:48.368Z,7.46
2023-05-01T05:02:35.308Z,7.87
2023-05-01T05:05:21.968Z,9.07
2023-05-01T05:08:10.412Z,10.56
2023-05-01T05:11:03.599Z,12.05
2023-05-01T05:13:57.228Z,13.53
2023-05-01T05:16:44.561Z,14.28
2023-05-01T05:19:31.345Z,14.74
2023-05-01T05:22:18.288Z,15.25
2023-05-01T05:25:24.041Z,15.29
2023-05-01T05:28:10.680Z,15.49
2023-05-01T05:30:59.392Z,15.68
2023-05-01T05:33:46.996Z,15.81
2023-05-01T05:36:35.643Z,15.40
2023-05-01T05:39:23.704Z,15.51
2023-05-01T05:42:10.758Z,16.18
2023-05-01T05:44:57.553Z,16.58
2023-05-01T05:47:46.117Z,16.87
2023-05-01T05:50:33.299Z,16.38
2023-05-01T05:53:20.228Z,16.10
2023-05-01T05:56:07.932Z,15.64
2023-05-01T05:58:54.859Z,14.69
2023-05-01T06:01:42.796Z,13.93
2023-05-01T06:04:31.039Z,13.66
2023-05-01T06:07:17.619Z,13.18
2023-05-01T06:10:05.708Z,12.93
2023-05-01T06:12:58.116Z,13.74
2023-05-01T06:15:57.887Z,14.86
2023-05-01T06:18:45.823Z,15.52
2023-05-01T06:21:35.162Z,15.43
2023-05-01T06:24:21.943Z,16.01
2023-05-01T06:27:11.312Z,16.07
2023-05-01T06:29:58.238Z,15.59
2023-05-01T06:32:44.845Z,15.74
2023-05-01T06:35:31.910Z,15.74
2023-05-01T06:38:20.324Z,14.98
2023-05-01T06:41:07.266Z,14.84
2023-05-01T06:43:54.100Z,14.70
2023-05-01T06:46:40.919Z,14.46
2023-05-01T06:49:27.660Z,14.26
2023-05-01T06:52:14.620Z,14.55
2023-05-01T06:55:03.889Z,14.24
2023-05-01T06:57:50.599Z,14.05
2023-05-01T07:00:37.433Z,14.26
2023-05-01T07:03:24.242Z,14.32
2023-05-01T07:06:10.983Z,14.58
2023-05-01T07:08:57.620Z,14.68
2023-05-01T07:11:45.940Z,14.48
2023-05-01T07:14:32.888Z,14.43
2023-05-01T07:17:19.645Z,14.54
2023-05-01T07:20:07.851Z,14.60
2023-05-01T07:22:54.489Z,14.68
2023-05-01T07:25:41.460Z,14.84
2023-05-01T07:28:29.245Z,14.71
2023-05-01T07:31:16.290Z,14.87
2023-05-01T07:34:03.844Z,15.02
2023-05-01T07:36:50.278Z,15.39
2023-05-01T07:39:37.184Z,15.37
2023-05-01T07:42:23.993Z,15.38
2023-05-01T07:45:12.839Z,15.60
2023-05-01T07:47:59.794Z,15.82
2023-05-01T07:50:46.634Z,16.02
2023-05-01T07:53:33.353Z,16.14
2023-05-01T07:56:20.118Z,16.33
2023-05-01T07:59:07.080Z,16.26
2023-05-01T08:01:55.253Z,16.28
2023-05-01T08:04:42.914Z,16.46
2023-05-01T08:07:29.559Z,16.05
2023-05-01T08:10:16.726Z,16.42
2023-05-01T08:13:03.248Z,16.62
2023-05-01T08:15:50.227Z,16.67
2023-05-01T08:18:38.094Z,16.81
2023-05-01T08:21:24.651Z,16.86
2023-05-01T08:24:11.973Z,17.27
2023-05-01T08:26:59.473Z,17.54
2023-05-01T08:29:46.331Z,17.42
2023-05-01T08:32:33.670Z,17.49
2023-05-01T08:35:22.156Z,17.81
2023-05-01T08:38:08.928Z,18.58
2023-05-01T08:40:57.011Z,19.06
2023-05-01T08:43:44.466Z,20.02
2023-05-01T08:46:42.686Z,20.45
2023-05-01T08:49:32.713Z,20.67
2023-05-01T08:52:23.402Z,19.94
2023-05-01T08:55:13.674Z,19.86
2023-05-01T08:58:01.267Z,19.94
2023-05-01T09:00:48.668Z,19.82
2023-05-01T09:03:36.460Z,20.11
2023-05-01T09:06:24.414Z,20.04
2023-05-01T09:09:12.561Z,20.14
2023-05-01T09:12:04.637Z,20.28
2023-05-01T09:14:51.904Z,20.11
2023-05-01T09:17:38.867Z,20.58
2023-05-01T09:20:25.753Z,20.57
2023-05-01T09:23:13.018Z,20.74
2023-05-01T09:26:01.769Z,20.27
2023-05-01T09:28:51.488Z,19.24
2023-05-01T09:31:38.505Z,19.39
2023-05-01T09:34:25.118Z,19.26
2023-05-01T09:37:15.664Z,19.59
2023-05-01T09:40:07.757Z,19.79
2023-05-01T09:42:56.547Z,19.86
2023-05-01T09:45:43.856Z,20.21
2023-05-01T09:48:33.303Z,20.89
2023-05-01T09:51:23.082Z,21.00
2023-05-01T09:54:20.062Z,20.46
2023-05-01T09:57:06.634Z,20.73
2023-05-01T10:00:08.668Z,20.91
2023-05-01T10:02:56.792Z,21.13
2023-05-01T10:05:47.022Z,21.16
2023-05-01T10:08:47.530Z,21.52
2023-05-01T10:11:48.923Z,21.78
2023-05-01T10:14:50.265Z,21.05
2023-05-01T10:17:39.792Z,21.32
2023-05-01T10:20:26.804Z,20.91
2023-05-01T10:23:13.855Z,21.01
2023-05-01T10:26:05.150Z,20.92
2023-05-01T10:28:52.738Z,20.53
2023-05-01T10:31:41.478Z,20.11
2023-05-01T10:34:31.754Z,20.18
2023-05-01T10:37:23.314Z,20.36
2023-05-01T10:40:48.384Z,20.46
2023-05-01T10:43:34.787Z,20.38
2023-05-01T10:46:29.875Z,20.71
2023-05-01T10:49:16.994Z,20.75
2023-05-01T10:52:05.153Z,20.65
2023-05-01T10:54:52.042Z,19.83
2023-05-01T10:57:46.178Z,20.21
2023-05-01T11:00:34.420Z,20.40
2023-05-01T11:03:36.679Z,20.59
2023-05-01T11:06:23.438Z,20.64
2023-05-01T11:09:38.871Z,20.47
2023-05-01T11:12:52.898Z,20.35
2023-05-01T11:15:40.721Z,20.32
2023-05-01T11:18:46.780Z,20.42
2023-05-01T11:21:34.303Z,20.78
2023-05-01T11:24:21.289Z,20.65
2023-05-01T11:27:10.010Z,20.68
2023-05-01T11:29:57.439Z,20.80
2023-05-01T11:32:45.483Z,20.76
2023-05-01T11:35:33.304Z,20.77
2023-05-01T11:38:20.161Z,21.01
2023-05-01T11:41:06.775Z,20.99
2023-05-01T11:43:56.624Z,20.82
2023-05-01T11:46:43.298Z,20.76
2023-05-01T11:49:30.040Z,20.89
2023-05-01T11:52:16.809Z,20.80
2023-05-01T11:55:04.989Z,20.98
2023-05-01T11:57:53.132Z,20.97
2023-05-01T12:00:42.103Z,20.85
2023-05-01T12:03:29.401Z,21.00
2023-05-01T12:06:16.784Z,20.94
2023-05-01T12:09:04.243Z,21.40
2023-05-01T12:11:52.923Z,21.54
2023-05-01T12:14:41.244Z,21.35
2023-05-01T12:17:30.307Z,21.45
2023-05-01T12:20:17.278Z,21.11
2023-05-01T12:23:05.323Z,21.30
2023-05-01T12:25:52.529Z,21.60
2023-05-01T12:28:39.320Z,21.48
2023-05-01T12:31:26.994Z,21.93
2023-05-01T12:34:15.087Z,21.77
2023-05-01T12:37:03.492Z,21.24
2023-05-01T12:39:50.439Z,21.69
2023-05-01T12:42:37.458Z,21.58
2023-05-01T12:45:24.695Z,21.42
2023-05-01T12:48:14.951Z,21.32
2023-05-01T12:51:03.038Z,21.45
2023-05-01T12:53:50.586Z,21.44
2023-05-01T12:56:37.286Z,21.52
2023-05-01T12:59:25.498Z,21.61
2023-05-01T13:02:16.034Z,21.28
2023-05-01T13:05:08.375Z,21.49
2023-05-01T13:07:56.607Z,21.38
2023-05-01T13:10:44.192Z,21.33
2023-05-01T13:13:32.961Z,21.71
2023-05-01T13:16:20.524Z,22.07
2023-05-01T13:19:07.451Z,21.96
2023-05-01T13:21:53.920Z,21.92
2023-05-01T13:24:43.729Z,21.95
2023-05-01T13:27:30.779Z,22.13
2023-05-01T13:30:20.062Z,21.59
2023-05-01T13:33:07.966Z,21.66
2023-05-01T13:35:54.757Z,21.63
2023-05-01T13:38:45.998Z,21.65
2023-05-01T13:41:35.452Z,22.07
2023-05-01T13:44:23.638Z,22.16
2023-05-01T13:47:10.689Z,21.99
2023-05-01T13:49:57.646Z,21.82
2023-05-01T13:52:46.206Z,21.92
2023-05-01T13:55:33.095Z,22.13
2023-05-01T13:58:21.116Z,22.26
2023-05-01T14:01:20.837Z,22.05
2023-05-01T14:04:10.700Z,21.73
2023-05-01T14:06:58.557Z,21.79
2023-05-01T14:09:45.906Z,21.78
2023-05-01T14:12:33.404Z,21.72
2023-05-01T14:15:23.734Z,21.59
2023-05-01T14:18:12.155Z,21.71
2023-05-01T14:21:00.476Z,21.97
2023-05-01T14:23:47.249Z,22.20
2023-05-01T14:26:36.501Z,21.87
2023-05-01T14:29:28.073Z,21.76
2023-05-01T14:32:17.177Z,22.30
2023-05-01T14:35:10.067Z,22.13
2023-05-01T14:37:57.275Z,22.14
2023-05-01T14:40:45.397Z,22.29
2023-05-01T14:43:32.685Z,22.33
2023-05-01T14:46:28.920Z,22.28
2023-05-01T14:49:21.679Z,22.10
2023-05-01T14:52:09.407Z,21.91
2023-05-01T14:54:56.711Z,22.01
2023-05-01T14:57:45.630Z,21.78
2023-05-01T15:00:32.249Z,21.70
2023-05-01T15:03:19.125Z,21.78
2023-05-01T15:06:07.558Z,21.53
2023-05-01T15:08:54.264Z,21.55
2023-05-01T15:11:41.344Z,21.63
2023-05-01T15:14:28.082Z,21.81
2023-05-01T15:17:14.498Z,21.59
2023-05-01T15:20:01.221Z,21.95
2023-05-01T15:22:49.307Z,21.78
2023-05-01T15:25:36.004Z,21.81
2023-05-01T15:28:24.070Z,21.55
2023-05-01T15:31:10.717Z,21.66
2023-05-01T15:33:57.551Z,21.54
2023-05-01T15:36:43.864Z,21.52
2023-05-01T15:39:33.255Z,21.57
2023-05-01T15:42:20.000Z,21.41
2023-05-01T15:45:07.338Z,21.46
2023-05-01T15:47:54.702Z,21.47
2023-05-01T15:50:41.752Z,21.54
2023-05-01T15:53:28.118Z,21.42
2023-05-01T15:56:16.384Z,21.14
2023-05-01T15:59:04.212Z,21.40
2023-05-01T16:01:53.860Z,21.41
2023-05-01T16:04:40.102Z,21.29
2023-05-01T16:07:27.697Z,21.41
2023-05-01T16:10:14.464Z,21.38
2023-05-01T16:13:02.493Z,21.45
2023-05-01T16:15:49.277Z,21.44
2023-05-01T16:18:36.140Z,21.46
2023-05-01T16:21:22.628Z,21.10
2023-05-01T16:24:10.914Z,21.29
2023-05-01T16:26:57.652Z,21.13
2023-05-01T16:29:46.071Z,21.29
2023-05-01T16:32:32.621Z,21.30
2023-05-01T16:35:19.755Z,21.34
2023-05-01T16:38:06.715Z,21.29
2023-05-01T16:40:53.769Z,21.41
2023-05-01T16:43:40.233Z,21.35
2023-05-01T16:46:31.713Z,21.32
2023-05-01T16:49:18.869Z,21.39
2023-05-01T16:52:05.983Z,21.31
2023-05-01T16:54:54.431Z,21.16
2023-05-01T16:57:44.164Z,20.92
2023-05-01T17:00:31.454Z,21.23
2023-05-01T17:03:19.621Z,21.11
2023-05-01T17:06:06.360Z,21.07
2023-05-01T17:08:53.797Z,20.96
2023-05-01T17:11:40.981Z,20.89
2023-05-01T17:14:28.843Z,20.74
2023-05-01T17:17:17.678Z,20.65
2023-05-01T17:20:06.821Z,20.56
2023-05-01T17:22:53.774Z,20.38
2023-05-01T17:25:40.626Z,20.32
2023-05-01T17:28:27.390Z,20.15
2023-05-01T17:31:15.925Z,20.12
2023-05-01T17:34:04.185Z,19.91
2023-05-01T17:36:52.206Z,19.67
2023-05-01T17:39:39.443Z,19.50
2023-05-01T17:42:26.469Z,19.44
2023-05-01T17:45:13.404Z,19.44
2023-05-01T17:48:00.950Z,19.39
2023-05-01T17:50:47.548Z,19.12
2023-05-01T17:53:36.318Z,18.85
2023-05-01T17:56:23.179Z,18.73
2023-05-01T17:59:09.920Z,18.53
2023-05-01T18:01:57.123Z,18.43
2023-05-01T18:04:43.535Z,18.29
2023-05-01T18:07:31.224Z,18.07
2023-05-01T18:10:20.698Z,17.98
2023-05-01T18:13:07.489Z,17.89
2023-05-01T18:15:54.213Z,17.82
2023-05-01T18:18:41.189Z,17.69
2023-05-01T18:21:28.686Z,17.51
2023-05-01T18:24:15.369Z,17.49
2023-05-01T18:27:03.588Z,17.41
2023-05-01T18:29:50.530Z,17.30
2023-05-01T18:32:47.396Z,17.25
2023-05-01T18:35:34.914Z,17.17
2023-05-01T18:38:21.735Z,17.09
2023-05-01T18:41:08.492Z,17.05
2023-05-01T18:43:58.125Z,16.73
2023-05-01T18:46:45.181Z,16.67
2023-05-01T18:49:32.138Z,16.54
2023-05-01T18:52:18.931Z,16.48
2023-05-01T18:55:06.383Z,16.27
2023-05-01T18:57:53.155Z,16.28
2023-05-01T19:00:41.003Z,16.06
2023-05-01T19:03:42.835Z,16.02
2023-05-01T19:06:42.687Z,15.87
2023-05-01T19:09:53.184Z,15.91
2023-05-01T19:12:52.152Z,15.59
2023-05-01T19:15:52.376Z,15.46
2023-05-01T19:18:41.610Z,15.33
2023-05-01T19:21:33.468Z,15.27
2023-05-01T19:24:22.725Z,15.36
2023-05-01T19:27:12.911Z,15.46
2023-05-01T19:30:03.296Z,15.18
2023-05-01T19:32:58.399Z,15.20
2023-05-01T19:35:46.382Z,15.12
2023-05-01T19:38:34.776Z,15.15
2023-05-01T19:41:22.696Z,15.13
2023-05-01T19:44:12.057Z,15.06
2023-05-01T19:47:00.168Z,15.06
2023-05-01T19:49:52.458Z,14.99
2023-05-01T19:52:40.500Z,14.76
2023-05-01T19:55:28.254Z,14.68
2023-05-01T19:58:15.883Z,14.55
2023-05-01T20:01:14.609Z,14.51
2023-05-01T20:04:06.155Z,14.43
2023-05-01T20:06:55.701Z,14.38
2023-05-01T20:09:43.007Z,14.31
2023-05-01T20:12:30.778Z,14.24
2023-05-01T20:15:19.340Z,14.23
2023-05-01T20:18:06.230Z,14.22
2023-05-01T20:20:52.989Z,14.02
2023-05-01T20:23:41.348Z,13.93
2023-05-01T20:26:27.986Z,13.88
2023-05-01T20:29:14.694Z,13.84
2023-05-01T20:32:01.514Z,13.80
2023-05-01T20:34:48.294Z,13.84
2023-05-01T20:37:34.976Z,13.78
2023-05-01T20:40:23.080Z,13.72
2023-05-01T20:43:09.863Z,13.61
2023-05-01T20:45:56.573Z,13.48
2023-05-01T20:48:44.077Z,13.38
2023-05-01T20:51:32.175Z,13.31
2023-05-01T20:54:19.088Z,13.60
2023-05-01T20:57:07.465Z,13.44
2023-05-01T20:59:53.892Z,13.43
2023-05-01T21:02:41.252Z,13.24
2023-05-01T21:05:28.853Z,13.20
2023-05-01T21:08:15.823Z,13.20
2023-05-01T21:11:02.676Z,13.23
2023-05-01T21:13:50.693Z,13.21
2023-05-01T21:16:37.712Z,13.17
2023-05-01T21:19:24.249Z,13.13
2023-05-01T21:22:17.010Z,13.18
2023-05-01T21:25:03.663Z,13.10
2023-05-01T21:27:50.376Z,13.09
2023-05-01T21:30:38.743Z,13.04
2023-05-01T21:33:26.080Z,13.03
2023-05-01T21:36:15.011Z,13.03
2023-05-01T21:39:02.052Z,13.07
2023-05-01T21:41:49.569Z,13.08
2023-05-01T21:44:36.492Z,13.07
2023-05-01T21:47:24.768Z,13.04
2023-05-01T21:50:13.388Z,12.99
2023-05-01T21:53:00.635Z,12.98
2023-05-01T21:55:47.482Z,13.03
2023-05-01T21:58:34.277Z,13.02
2023-05-01T22:01:24.566Z,12.96
2023-05-01T22:04:18.390Z,12.91
2023-05-01T22:07:05.495Z,12.95
2023-05-01T22:09:52.031Z,12.96
2023-05-01T22:12:39.579Z,12.99
2023-05-01T22:15:27.373Z,13.18
2023-05-01T22:18:19.986Z,13.11
2023-05-01T22:21:09.585Z,13.13
2023-05-01T22:23:56.378Z,13.10
2023-05-01T22:26:43.055Z,13.13
2023-05-01T22:29:29.652Z,13.13
2023-05-01T22:32:16.420Z,13.07
2023-05-01T22:35:03.838Z,13.17
2023-05-01T22:37:51.911Z,13.16
2023-05-01T22:40:38.611Z,13.28
2023-05-01T22:43:25.533Z,13.02
2023-05-01T22:46:12.300Z,12.92
2023-05-01T22:49:01.333Z,12.82
2023-05-01T22:51:47.946Z,12.77
2023-05-01T22:54:36.261Z,12.74
2023-05-01T22:57:23.543Z,12.77
2023-05-01T23:00:13.896Z,12.75
2023-05-01T23:03:00.892Z,12.73
2023-05-01T23:05:47.770Z,12.65
2023-05-01T23:08:34.553Z,12.54
2023-05-01T23:11:23.638Z,12.48
2023-05-01T23:14:11.221Z,12.54
2023-05-01T23:16:59.111Z,12.57
2023-05-01T23:19:47.296Z,12.52
2023-05-01T23:22:36.265Z,12.48
2023-05-01T23:25:26.445Z,12.52
2023-05-01T23:28:21.168Z,12.48
2023-05-01T23:31:10.077Z,12.34
2023-05-01T23:33:56.996Z,12.40
2023-05-01T23:36:46.148Z,12.33
2023-05-01T23:39:32.638Z,12.37
2023-05-01T23:42:19.597Z,12.42
2023-05-01T23:45:09.471Z,12.44
2023-05-01T23:47:56.104Z,12.45
2023-05-01T23:50:42.784Z,12.53
2023-05-01T23:53:30.805Z,12.50
2023-05-01T23:56:21.533Z,12.45
2023-05-01T23:59:08.744Z,12.39
